Time;durP1;ratioP1;P1;durP2;ratioP2;P2;SDS_P1;SDS_P2;PMS_P1;PMS_P2;Temp;Humidity;BMP_temperature;BMP_pressure;BME280_temperature;BME280_humidity;BME280_pressure;Samples;Min_cycle;Max_cycle;Signal;HPM_P1;HPM_P2
2022/01/17 00:00:50;;;;;;;10.13;8.67;;;5.80;99.90;;;;;;10503635;28;20196;-79
2022/01/17 00:05:53;;;;;;;9.20;8.30;;;5.90;99.90;;;;;;10523906;28;20220;-79
2022/01/17 00:10:56;;;;;;;9.00;8.10;;;5.90;99.90;;;;;;10519693;28;20196;-79
2022/01/17 00:16:05;;;;;;;9.90;8.90;;;5.90;99.90;;;;;;10503542;28;20212;-80
2022/01/17 00:21:08;;;;;;;8.80;8.00;;;6.00;99.90;;;;;;10501518;28;20225;-78
2022/01/17 00:26:11;;;;;;;8.47;7.63;;;5.90;99.90;;;;;;10507538;28;20212;-80
2022/01/17 00:31:13;;;;;;;9.10;8.20;;;5.90;99.90;;;;;;10523658;28;20200;-79
2022/01/17 00:36:16;;;;;;;9.57;8.50;;;5.90;99.90;;;;;;10501661;28;20211;-80
2022/01/17 00:41:18;;;;;;;9.93;9.03;;;6.00;99.90;;;;;;10534425;28;20191;-79
2022/01/17 00:46:20;;;;;;;8.47;7.67;;;6.10;99.90;;;;;;10523246;28;20239;-79
2022/01/17 00:51:24;;;;;;;8.10;7.40;;;6.20;99.90;;;;;;10516862;28;20196;-80
2022/01/17 00:56:26;;;;;;;9.23;8.43;;;6.20;99.90;;;;;;10546524;22;20224;-80
2022/01/17 01:01:28;;;;;;;8.40;7.60;;;6.30;99.90;;;;;;10496617;28;20204;-80
2022/01/17 01:06:31;;;;;;;8.63;7.90;;;6.40;99.90;;;;;;10496598;28;20231;-81
2022/01/17 01:11:34;;;;;;;8.80;7.97;;;6.40;99.90;;;;;;10495830;28;20196;-80
2022/01/17 01:16:37;;;;;;;10.50;9.33;;;6.40;99.90;;;;;;10480110;28;20255;-80
2022/01/17 01:27:36;;;;;;;11.73;10.63;;;6.40;99.90;;;;;;10498493;28;20177;-81
2022/01/17 01:27:43;;;;;;;14.30;11.73;;;6.40;99.90;;;;;;10480204;28;20216;-82
2022/01/17 01:32:50;;;;;;;14.47;12.97;;;6.40;99.90;;;;;;10504063;28;20199;-83
2022/01/17 01:37:53;;;;;;;14.83;13.37;;;6.40;99.90;;;;;;10500978;28;20204;-83
2022/01/17 01:42:55;;;;;;;15.43;13.20;;;6.40;99.90;;;;;;10501687;28;20188;-82
2022/01/17 01:48:00;;;;;;;15.47;13.93;;;6.40;99.90;;;;;;10517460;28;20632;-84
2022/01/17 01:53:04;;;;;;;14.40;12.90;;;6.40;99.90;;;;;;10517352;28;20234;-84
2022/01/17 01:58:07;;;;;;;15.73;13.90;;;6.40;99.90;;;;;;10522850;28;20287;-83
2022/01/17 02:03:09;;;;;;;14.40;12.90;;;6.30;99.90;;;;;;10514197;28;20196;-84
2022/01/17 02:08:14;;;;;;;13.50;12.20;;;6.40;99.90;;;;;;10504834;28;20566;-84
2022/01/17 02:13:16;;;;;;;13.60;11.87;;;6.40;99.90;;;;;;10504557;28;20189;-82
2022/01/17 02:18:28;;;;;;;13.53;12.13;;;6.40;99.90;;;;;;10534946;28;20250;-80
2022/01/17 02:23:32;;;;;;;14.10;12.70;;;6.40;99.90;;;;;;10516549;28;20199;-80
2022/01/17 02:28:36;;;;;;;11.87;10.77;;;6.30;99.90;;;;;;10500940;28;20250;-80
2022/01/17 02:33:38;;;;;;;12.60;11.30;;;6.30;99.90;;;;;;10498633;28;20224;-80
2022/01/17 02:38:42;;;;;;;13.17;11.70;;;6.30;99.90;;;;;;10529100;28;20625;-81
2022/01/17 02:43:46;;;;;;;11.90;10.60;;;6.20;99.90;;;;;;10524824;28;20402;-81
2022/01/17 02:48:48;;;;;;;12.83;11.50;;;6.20;99.90;;;;;;10515782;28;20248;-80
2022/01/17 02:53:51;;;;;;;12.10;10.83;;;6.20;99.90;;;;;;10521658;28;20191;-80
2022/01/17 02:58:54;;;;;;;12.70;11.40;;;6.20;99.90;;;;;;10546108;28;20216;-81
2022/01/17 03:03:57;;;;;;;12.37;11.07;;;6.20;99.90;;;;;;10500968;28;20197;-81
2022/01/17 03:09:00;;;;;;;13.13;11.83;;;6.30;99.90;;;;;;10512790;28;20216;-82
2022/01/17 03:14:03;;;;;;;11.90;10.80;;;6.40;99.90;;;;;;10522479;28;20256;-82
2022/01/17 03:19:05;;;;;;;12.10;10.90;;;6.40;99.90;;;;;;10509827;28;20216;-82
2022/01/17 03:24:10;;;;;;;12.57;11.27;;;6.50;99.90;;;;;;10524966;28;20678;-82
2022/01/17 03:29:13;;;;;;;12.80;11.50;;;6.40;99.90;;;;;;10513042;28;20320;-83
2022/01/17 03:34:15;;;;;;;12.53;11.33;;;6.40;99.90;;;;;;10531966;28;20203;-83
2022/01/17 03:39:18;;;;;;;12.13;10.93;;;6.50;99.90;;;;;;10524427;28;20213;-83
2022/01/17 03:44:20;;;;;;;11.80;10.57;;;6.40;99.90;;;;;;10509951;28;20222;-83
2022/01/17 03:49:22;;;;;;;11.67;10.53;;;6.40;99.90;;;;;;10485284;28;20216;-82
2022/01/17 03:54:26;;;;;;;12.00;10.80;;;6.40;99.90;;;;;;10517859;28;20197;-83
2022/01/17 03:59:28;;;;;;;11.70;10.50;;;6.30;99.90;;;;;;10475991;28;20227;-83
2022/01/17 04:04:30;;;;;;;10.70;9.63;;;6.30;99.90;;;;;;10522564;28;20205;-83
2022/01/17 04:09:33;;;;;;;11.00;9.80;;;6.30;99.90;;;;;;10506906;28;20220;-82
2022/01/17 04:14:38;;;;;;;11.50;10.30;;;6.20;99.90;;;;;;10517291;28;20200;-82
2022/01/17 04:19:41;;;;;;;11.90;9.77;;;6.00;99.90;;;;;;10510734;28;20243;-82
2022/01/17 04:24:45;;;;;;;11.80;10.60;;;6.00;99.90;;;;;;10500200;28;20630;-83
2022/01/17 04:29:47;;;;;;;12.30;10.80;;;5.90;99.90;;;;;;10496955;28;20220;-82
2022/01/17 04:34:49;;;;;;;11.50;10.30;;;5.90;99.90;;;;;;10479694;28;20280;-82
2022/01/17 04:39:52;;;;;;;12.83;10.70;;;5.90;99.90;;;;;;10496411;28;20191;-83
2022/01/17 04:45:08;;;;;;;11.70;10.60;;;5.80;99.90;;;;;;10499188;28;20247;-82
2022/01/17 04:50:13;;;;;;;12.13;10.93;;;5.70;99.90;;;;;;10500373;28;20184;-82
2022/01/17 04:55:18;;;;;;;13.97;11.00;;;5.70;99.90;;;;;;10496312;28;20231;-82
2022/01/17 05:00:22;;;;;;;12.20;10.90;;;5.70;99.90;;;;;;10497870;28;20227;-83
2022/01/17 05:05:24;;;;;;;13.10;11.80;;;5.80;99.90;;;;;;10499531;28;20383;-82
2022/01/17 05:10:28;;;;;;;12.10;10.80;;;5.80;99.90;;;;;;10527874;28;20205;-83
2022/01/17 05:15:33;;;;;;;12.20;10.90;;;5.90;99.90;;;;;;10497951;28;20208;-82
2022/01/17 05:20:35;;;;;;;11.27;10.27;;;6.00;99.90;;;;;;10501053;28;20207;-83
2022/01/17 05:25:39;;;;;;;13.80;11.00;;;6.00;99.90;;;;;;10501200;28;20220;-83
2022/01/17 05:30:41;;;;;;;10.50;9.50;;;6.00;99.90;;;;;;10486163;28;20197;-83
2022/01/17 05:35:43;;;;;;;11.07;9.90;;;6.10;99.90;;;;;;10491439;28;20217;-83
2022/01/17 05:40:47;;;;;;;10.77;9.77;;;6.10;99.90;;;;;;10503006;28;20611;-83
2022/01/17 05:45:49;;;;;;;11.87;9.43;;;6.20;99.90;;;;;;10504943;28;20233;-82
2022/01/17 05:50:51;;;;;;;10.40;9.27;;;6.20;99.90;;;;;;10497356;28;20193;-83
2022/01/17 05:55:54;;;;;;;11.37;10.20;;;6.20;99.90;;;;;;10495326;28;20220;-81
2022/01/17 06:00:57;;;;;;;10.07;9.07;;;6.20;99.90;;;;;;10489526;28;20218;-80
2022/01/17 06:05:59;;;;;;;9.83;8.83;;;6.30;99.90;;;;;;10486214;28;20584;-80
2022/01/17 06:11:02;;;;;;;24.10;18.67;;;6.30;99.90;;;;;;10491881;28;20207;-80
2022/01/17 06:16:05;;;;;;;12.30;11.07;;;6.30;99.90;;;;;;10504043;28;20251;-81
2022/01/17 06:21:07;;;;;;;10.23;8.50;;;6.40;99.90;;;;;;10507611;28;20560;-81
2022/01/17 06:26:10;;;;;;;11.40;8.30;;;6.40;99.90;;;;;;10504588;28;20223;-80
2022/01/17 06:31:12;;;;;;;9.73;8.73;;;6.40;99.90;;;;;;10506960;28;20202;-82
2022/01/17 06:36:17;;;;;;;9.60;8.60;;;6.40;99.90;;;;;;10491001;28;20267;-83
2022/01/17 06:41:21;;;;;;;9.83;8.83;;;6.50;99.90;;;;;;10508372;28;20257;-82
2022/01/17 06:46:24;;;;;;;9.77;8.87;;;6.50;99.90;;;;;;10506289;28;20560;-83
2022/01/17 06:51:26;;;;;;;8.77;8.00;;;6.50;99.90;;;;;;10491667;28;20193;-83
2022/01/17 06:56:30;;;;;;;9.00;8.20;;;6.60;99.90;;;;;;10514294;22;20596;-77
2022/01/17 07:01:37;;;;;;;9.03;8.20;;;6.60;99.90;;;;;;10503884;28;20196;-79
2022/01/17 07:06:40;;;;;;;9.40;8.60;;;6.60;99.90;;;;;;10494576;28;20251;-80
2022/01/17 07:11:44;;;;;;;9.30;8.40;;;6.60;99.90;;;;;;10471708;28;20192;-79
2022/01/17 07:16:46;;;;;;;8.80;7.90;;;6.60;99.90;;;;;;10497584;28;20268;-79
2022/01/17 07:21:49;;;;;;;10.33;9.10;;;6.70;99.90;;;;;;10471850;28;20200;-78
2022/01/17 07:26:53;;;;;;;9.07;8.27;;;6.70;99.90;;;;;;10493772;28;20232;-80
2022/01/17 07:31:56;;;;;;;7.90;7.20;;;6.70;99.90;;;;;;10470756;28;20201;-80
2022/01/17 07:36:59;;;;;;;9.00;8.20;;;6.80;99.90;;;;;;10494427;28;20217;-79
2022/01/17 07:42:03;;;;;;;9.23;8.40;;;6.80;99.90;;;;;;10467279;28;20259;-77
2022/01/17 07:47:06;;;;;;;8.17;7.40;;;6.70;99.90;;;;;;10488564;28;20224;-77
2022/01/17 07:52:08;;;;;;;6.77;6.07;;;6.70;99.90;;;;;;10490443;28;20204;-78
2022/01/17 07:57:12;;;;;;;9.07;6.67;;;6.80;99.90;;;;;;10463198;28;20212;-78
2022/01/17 08:02:14;;;;;;;7.33;6.63;;;6.80;99.90;;;;;;10492172;28;20195;-78
2022/01/17 08:07:17;;;;;;;6.83;6.23;;;6.80;99.90;;;;;;10463926;28;20213;-78
2022/01/17 08:12:20;;;;;;;7.30;6.70;;;6.80;99.90;;;;;;10468833;28;20199;-79
2022/01/17 08:17:22;;;;;;;8.47;7.67;;;6.80;99.90;;;;;;10492896;28;20296;-76
2022/01/17 08:22:25;;;;;;;8.33;7.53;;;6.90;99.90;;;;;;10462568;28;20188;-77
2022/01/17 08:27:28;;;;;;;7.33;6.70;;;7.00;99.90;;;;;;10492343;28;20213;-78
2022/01/17 08:32:32;;;;;;;10.33;9.40;;;7.00;99.90;;;;;;10460421;28;20660;-76
2022/01/17 08:37:35;;;;;;;8.20;7.50;;;7.10;99.90;;;;;;10493508;28;20296;-78
2022/01/17 08:42:39;;;;;;;7.60;6.90;;;7.10;99.90;;;;;;10461445;28;20197;-77
2022/01/17 08:47:43;;;;;;;6.90;6.20;;;7.20;99.90;;;;;;10494017;28;20228;-78
2022/01/17 08:52:45;;;;;;;6.40;5.80;;;7.20;99.90;;;;;;10461195;28;20671;-78
2022/01/17 08:57:49;;;;;;;6.50;5.90;;;7.10;99.90;;;;;;10493421;28;20595;-77
2022/01/17 09:02:51;;;;;;;7.03;6.33;;;7.10;99.90;;;;;;10459683;28;20577;-77
2022/01/17 09:07:53;;;;;;;7.93;7.13;;;7.10;99.90;;;;;;10480815;28;20315;-79
2022/01/17 09:12:57;;;;;;;5.97;5.37;;;7.30;99.90;;;;;;10458692;28;20240;-80
2022/01/17 09:18:00;;;;;;;6.53;5.93;;;7.30;99.90;;;;;;10463447;28;20274;-80
2022/01/17 09:23:02;;;;;;;5.47;4.93;;;7.50;99.90;;;;;;10481694;28;20204;-80
2022/01/17 09:28:06;;;;;;;5.97;5.37;;;7.60;99.90;;;;;;10462370;28;20546;-80
2022/01/17 09:33:08;;;;;;;4.90;4.50;;;7.70;99.90;;;;;;10476079;28;20557;-77
2022/01/17 09:38:11;;;;;;;5.37;4.87;;;7.70;99.90;;;;;;10496401;28;20224;-78
2022/01/17 09:43:15;;;;;;;5.40;5.00;;;7.80;99.90;;;;;;10456759;28;20691;-77
2022/01/17 09:48:20;;;;;;;4.60;4.30;;;7.80;99.90;;;;;;10468422;28;20803;-77
2022/01/17 09:53:23;;;;;;;5.60;5.10;;;7.90;99.90;;;;;;10497522;28;20219;-78
2022/01/17 09:58:30;;;;;;;5.70;5.20;;;7.90;99.90;;;;;;10456959;28;20213;-77
2022/01/17 10:03:33;;;;;;;5.70;5.20;;;8.00;99.90;;;;;;10498227;28;20192;-80
2022/01/17 10:08:36;;;;;;;5.20;4.70;;;8.00;99.90;;;;;;10462730;28;20244;-80
2022/01/17 10:13:44;;;;;;;4.50;4.10;;;8.10;99.90;;;;;;10474412;28;20216;-80
2022/01/17 10:18:48;;;;;;;4.47;4.17;;;8.20;99.90;;;;;;10506639;28;20201;-78
2022/01/17 10:24:15;;;;;;;3.63;3.37;;;8.30;99.90;;;;;;10461077;28;20197;-79
2022/01/17 10:34:56;;;;;;;3.10;2.80;;;8.50;99.90;;;;;;10495772;28;20342;-80
2022/01/17 10:40:00;;;;;;;3.10;2.90;;;8.50;99.90;;;;;;10486122;28;20208;-79
2022/01/17 10:45:09;;;;;;;3.30;3.10;;;8.50;99.90;;;;;;10461993;28;20192;-79
2022/01/17 10:50:14;;;;;;;3.33;3.03;;;8.50;99.90;;;;;;10486964;28;20217;-79
2022/01/17 10:55:18;;;;;;;2.90;2.70;;;8.50;99.90;;;;;;10459670;28;20189;-78
2022/01/17 11:00:24;;;;;;;3.17;2.97;;;8.50;99.90;;;;;;10469164;28;20228;-79
2022/01/17 11:05:28;;;;;;;4.50;4.10;;;8.40;99.90;;;;;;10493761;28;20216;-80
2022/01/17 11:10:33;;;;;;;5.20;4.73;;;8.30;99.90;;;;;;10468006;28;20223;-78
2022/01/17 11:15:38;;;;;;;4.87;4.47;;;8.30;99.90;;;;;;10463338;28;20304;-78
2022/01/17 11:20:40;;;;;;;6.53;4.80;;;8.20;99.90;;;;;;10441987;28;20190;-79
2022/01/17 11:25:44;;;;;;;4.90;4.50;;;8.20;99.90;;;;;;10439510;28;20221;-79
2022/01/17 11:30:48;;;;;;;6.63;6.03;;;8.30;99.90;;;;;;10455353;28;21003;-79
2022/01/17 11:35:52;;;;;;;6.43;5.93;;;8.30;99.90;;;;;;10456898;28;20645;-79
2022/01/17 11:40:55;;;;;;;9.03;8.27;;;8.20;99.90;;;;;;10460444;28;20196;-79
2022/01/17 11:46:00;;;;;;;8.00;7.20;;;8.20;99.90;;;;;;10458125;28;20221;-78
2022/01/17 11:51:13;;;;;;;7.43;6.83;;;8.10;99.90;;;;;;10463225;28;20206;-76
2022/01/17 11:56:38;;;;;;;6.30;5.80;;;8.00;99.90;;;;;;10458828;28;20243;-76
2022/01/17 12:01:41;;;;;;;6.13;5.63;;;7.90;99.90;;;;;;10456857;28;20185;-77
2022/01/17 12:06:43;;;;;;;8.83;6.90;;;7.90;99.90;;;;;;10458184;28;20209;-76
2022/01/17 12:11:45;;;;;;;7.60;6.90;;;7.90;99.90;;;;;;10459176;28;20223;-77
2022/01/17 12:16:49;;;;;;;5.67;5.17;;;8.00;99.90;;;;;;10457924;28;20217;-77
2022/01/17 12:22:06;;;;;;;5.97;4.67;;;8.00;99.90;;;;;;10464141;28;20575;-78
2022/01/17 12:27:19;;;;;;;5.30;4.90;;;8.10;99.90;;;;;;10451164;28;20213;-78
2022/01/17 12:32:47;;;;;;;5.30;4.90;;;8.10;99.90;;;;;;10455990;28;20296;-79
2022/01/17 12:37:52;;;;;;;5.23;4.77;;;8.10;99.90;;;;;;10481687;28;20213;-78
2022/01/17 12:42:58;;;;;;;6.53;5.30;;;8.20;99.90;;;;;;10459466;28;20544;-78
2022/01/17 12:48:03;;;;;;;7.03;6.43;;;8.20;99.90;;;;;;10466377;28;20221;-78
2022/01/17 12:53:07;;;;;;;7.00;6.30;;;8.30;99.90;;;;;;10458337;28;20284;-80
2022/01/17 12:58:12;;;;;;;5.47;4.97;;;8.40;99.90;;;;;;10461675;28;20240;-78
2022/01/17 13:03:17;;;;;;;4.20;3.90;;;8.40;99.90;;;;;;10444059;28;20197;-80
2022/01/17 13:08:21;;;;;;;4.30;3.90;;;8.50;99.90;;;;;;10438844;28;20213;-79
2022/01/17 13:13:25;;;;;;;4.00;3.70;;;8.40;99.90;;;;;;10439108;28;20594;-79
2022/01/17 13:18:30;;;;;;;4.53;4.23;;;8.40;99.90;;;;;;10435354;28;20223;-79
2022/01/17 13:23:37;;;;;;;3.20;3.00;;;8.50;99.90;;;;;;10441465;28;20292;-79
2022/01/17 13:28:40;;;;;;;3.33;3.13;;;8.40;99.90;;;;;;10441994;28;20221;-78
2022/01/17 13:33:44;;;;;;;4.90;3.57;;;8.40;99.90;;;;;;10458797;28;20255;-77
2022/01/17 13:39:05;;;;;;;3.80;3.47;;;8.40;99.90;;;;;;10440502;28;20201;-78
2022/01/17 13:44:08;;;;;;;3.07;2.87;;;8.40;99.90;;;;;;10444093;28;20391;-77
2022/01/17 13:49:11;;;;;;;5.23;3.93;;;8.40;99.90;;;;;;10436336;28;20212;-78
2022/01/17 13:54:24;;;;;;;3.13;2.83;;;8.30;99.90;;;;;;10436354;28;20657;-77
2022/01/17 13:59:27;;;;;;;3.50;3.20;;;8.30;99.90;;;;;;10438229;28;20236;-77
2022/01/17 14:04:31;;;;;;;3.90;3.60;;;8.30;99.90;;;;;;10438618;28;20661;-80
2022/01/17 14:09:36;;;;;;;3.20;2.97;;;8.30;99.90;;;;;;10441132;28;20243;-80
2022/01/17 14:14:38;;;;;;;3.20;2.93;;;8.30;99.90;;;;;;10469058;28;20608;-79
2022/01/17 14:19:42;;;;;;;3.20;2.90;;;8.40;99.90;;;;;;10457314;28;20220;-79
2022/01/17 14:24:45;;;;;;;3.13;2.93;;;8.40;99.90;;;;;;10483181;28;20474;-80
2022/01/17 14:29:49;;;;;;;3.37;3.07;;;8.40;99.90;;;;;;10458551;28;20289;-80
2022/01/17 14:34:53;;;;;;;3.20;3.00;;;8.40;99.90;;;;;;10491202;28;20235;-79
2022/01/17 14:40:00;;;;;;;2.87;2.63;;;8.40;99.90;;;;;;10484320;28;20259;-80
2022/01/17 14:45:05;;;;;;;4.03;3.20;;;8.40;99.90;;;;;;10494547;28;20232;-79
2022/01/17 14:50:11;;;;;;;3.63;3.30;;;8.40;99.90;;;;;;10484847;28;20674;-80
2022/01/17 14:55:34;;;;;;;3.20;3.00;;;8.30;99.90;;;;;;10492249;28;20197;-77
2022/01/17 15:00:41;;;;;;;3.90;3.60;;;8.20;99.90;;;;;;10487670;28;20270;-80
2022/01/17 15:05:45;;;;;;;11.37;8.43;;;8.30;99.90;;;;;;10492430;28;20641;-80
2022/01/17 15:10:48;;;;;;;4.47;4.07;;;8.30;99.90;;;;;;10492445;28;20627;-79
2022/01/17 15:15:50;;;;;;;4.10;3.80;;;8.30;99.90;;;;;;10492553;28;20589;-78
2022/01/17 15:20:53;;;;;;;6.40;4.43;;;8.20;99.90;;;;;;10481673;28;20212;-79
2022/01/17 15:25:59;;;;;;;4.80;4.40;;;8.20;99.90;;;;;;10468035;28;20595;-79
2022/01/17 15:31:03;;;;;;;4.60;4.10;;;8.10;99.90;;;;;;10481387;28;20270;-78
2022/01/17 15:36:07;;;;;;;7.93;4.70;;;8.00;99.90;;;;;;10487180;28;20220;-78
2022/01/17 15:41:13;;;;;;;5.00;4.70;;;7.90;99.90;;;;;;10478175;28;20224;-76
2022/01/17 15:46:15;;;;;;;5.33;4.93;;;7.90;99.90;;;;;;10480202;28;20256;-76
2022/01/17 15:51:19;;;;;;;6.17;5.30;;;7.80;99.90;;;;;;10477147;28;20262;-76
2022/01/17 15:56:21;;;;;;;5.23;4.83;;;7.80;99.90;;;;;;10481804;28;20233;-78
2022/01/17 16:01:23;;;;;;;5.40;4.90;;;7.80;99.90;;;;;;10476725;28;20217;-76
2022/01/17 16:06:27;;;;;;;6.20;5.60;;;7.80;99.90;;;;;;10482852;28;20214;-76
2022/01/17 16:11:32;;;;;;;6.67;6.00;;;7.80;99.90;;;;;;10473823;28;20702;-77
2022/01/17 16:16:35;;;;;;;6.67;5.90;;;7.80;99.90;;;;;;10482605;28;20231;-76
2022/01/17 16:21:39;;;;;;;5.93;5.47;;;7.80;99.90;;;;;;10474322;28;20618;-77
2022/01/17 16:26:41;;;;;;;6.50;5.90;;;7.80;99.90;;;;;;10480169;28;20225;-77
2022/01/17 16:31:44;;;;;;;7.40;6.80;;;7.70;99.90;;;;;;10453195;28;20673;-77
2022/01/17 16:36:47;;;;;;;7.00;6.30;;;7.80;99.90;;;;;;10449722;28;20587;-78
2022/01/17 16:41:50;;;;;;;8.83;6.70;;;7.70;99.90;;;;;;10454131;28;20242;-77
2022/01/17 16:46:52;;;;;;;6.83;6.27;;;7.80;99.90;;;;;;10459381;28;20248;-77
2022/01/17 16:51:57;;;;;;;7.73;7.03;;;7.70;99.90;;;;;;10457817;28;20189;-77
2022/01/17 16:56:59;;;;;;;8.13;7.33;;;7.80;99.90;;;;;;10455485;28;20244;-78
2022/01/17 17:02:01;;;;;;;8.13;7.40;;;7.80;99.90;;;;;;10458633;28;20569;-80
2022/01/17 17:07:05;;;;;;;8.43;7.73;;;7.80;99.90;;;;;;10473143;28;20228;-77
2022/01/17 17:12:08;;;;;;;9.07;7.93;;;7.80;99.90;;;;;;10483563;28;20211;-78
2022/01/17 17:17:10;;;;;;;17.93;13.90;;;7.80;99.90;;;;;;10470326;28;20220;-77
2022/01/17 17:22:15;;;;;;;11.47;10.27;;;7.80;99.90;;;;;;10482746;28;20209;-77
2022/01/17 17:27:17;;;;;;;9.50;8.50;;;7.80;99.90;;;;;;10473665;28;20220;-80
2022/01/17 17:32:19;;;;;;;9.10;8.30;;;7.80;99.90;;;;;;10484210;28;20247;-78
2022/01/17 17:37:23;;;;;;;9.83;8.93;;;7.70;99.90;;;;;;10469168;28;20221;-79
2022/01/17 17:42:25;;;;;;;12.43;8.70;;;7.70;99.90;;;;;;10460907;28;20622;-78
2022/01/17 17:47:28;;;;;;;10.50;9.47;;;7.60;99.90;;;;;;10464694;28;20639;-79
2022/01/17 17:52:31;;;;;;;11.30;10.10;;;7.60;99.90;;;;;;10442813;28;20220;-79
2022/01/17 17:57:33;;;;;;;11.80;10.17;;;7.60;99.90;;;;;;10470416;28;20722;-79
2022/01/17 18:02:35;;;;;;;10.77;9.67;;;7.50;99.90;;;;;;10469467;28;20279;-80
2022/01/17 18:07:39;;;;;;;12.30;10.73;;;7.50;99.90;;;;;;10496595;28;20220;-81
2022/01/17 18:12:41;;;;;;;11.63;10.47;;;7.50;99.90;;;;;;10483861;28;20212;-81
2022/01/17 18:17:45;;;;;;;12.40;11.10;;;7.50;99.90;;;;;;10485354;28;20223;-78
2022/01/17 18:22:48;;;;;;;10.90;9.70;;;7.50;99.90;;;;;;10483311;28;20198;-79
2022/01/17 18:27:51;;;;;;;11.73;10.57;;;7.50;99.90;;;;;;10505391;28;20266;-80
2022/01/17 18:32:53;;;;;;;12.23;11.03;;;7.50;99.90;;;;;;10481170;28;20255;-79
2022/01/17 18:37:57;;;;;;;13.77;11.33;;;7.50;99.90;;;;;;10487753;28;20216;-78
2022/01/17 18:42:59;;;;;;;11.40;10.30;;;7.40;99.90;;;;;;10503240;28;20206;-78
2022/01/17 18:48:02;;;;;;;11.97;10.87;;;7.50;99.90;;;;;;10476313;28;20699;-80
2022/01/17 18:53:05;;;;;;;12.43;10.37;;;7.40;99.90;;;;;;10502305;28;20621;-79
2022/01/17 18:58:08;;;;;;;12.17;10.97;;;7.40;99.90;;;;;;10475321;28;20208;-79
2022/01/17 19:03:11;;;;;;;13.00;11.70;;;7.40;99.90;;;;;;10473508;28;20208;-79
2022/01/17 19:08:14;;;;;;;12.73;11.43;;;7.40;99.90;;;;;;10503928;28;20252;-79
2022/01/17 19:13:17;;;;;;;11.97;10.60;;;7.30;99.90;;;;;;10476009;28;20196;-79
2022/01/17 19:18:41;;;;;;;12.60;11.40;;;7.30;99.90;;;;;;10501760;28;20213;-78
2022/01/17 19:23:44;;;;;;;13.93;11.83;;;7.30;99.90;;;;;;10473652;28;20226;-79
2022/01/17 19:28:47;;;;;;;12.80;11.57;;;7.30;99.90;;;;;;10495620;28;20220;-79
2022/01/17 19:33:49;;;;;;;13.77;11.87;;;7.30;99.90;;;;;;10499156;22;20644;-79
2022/01/17 19:38:52;;;;;;;11.20;10.10;;;7.30;99.90;;;;;;10501822;28;20224;-79
2022/01/17 19:43:55;;;;;;;10.90;9.83;;;7.30;99.90;;;;;;10502553;28;20262;-78
2022/01/17 19:48:59;;;;;;;10.87;9.73;;;7.30;99.90;;;;;;10501750;28;20748;-78
2022/01/17 19:54:04;;;;;;;11.40;10.30;;;7.30;99.90;;;;;;10500774;28;20212;-78
2022/01/17 19:59:06;;;;;;;11.70;10.50;;;7.30;99.90;;;;;;10497744;28;20195;-77
2022/01/17 20:04:08;;;;;;;13.03;11.73;;;7.30;99.90;;;;;;10497944;28;20288;-78
2022/01/17 20:09:12;;;;;;;12.60;11.40;;;7.40;99.90;;;;;;10497348;28;20225;-78
2022/01/17 20:14:14;;;;;;;11.93;10.77;;;7.40;99.90;;;;;;10498572;28;20216;-78
2022/01/17 20:19:16;;;;;;;12.37;11.17;;;7.40;99.90;;;;;;10517501;28;20216;-78
2022/01/17 20:24:20;;;;;;;12.57;11.37;;;7.40;99.90;;;;;;10496894;28;20295;-78
2022/01/17 20:29:22;;;;;;;12.47;11.17;;;7.50;99.90;;;;;;10475784;28;20706;-78
2022/01/17 20:34:24;;;;;;;11.40;10.30;;;7.50;99.90;;;;;;10486854;28;20231;-78
2022/01/17 20:39:28;;;;;;;11.47;10.37;;;7.60;99.90;;;;;;10513657;28;20192;-78
2022/01/17 20:44:30;;;;;;;12.30;11.20;;;7.50;99.90;;;;;;10494812;28;20680;-78
2022/01/17 20:49:32;;;;;;;11.57;10.47;;;7.40;99.90;;;;;;10510893;28;20215;-78
2022/01/17 20:54:36;;;;;;;12.00;10.80;;;7.40;99.90;;;;;;10536262;28;20242;-78
2022/01/17 20:59:38;;;;;;;11.23;10.23;;;7.40;99.90;;;;;;10496046;28;20630;-78
2022/01/17 21:04:40;;;;;;;10.70;9.70;;;7.40;99.90;;;;;;10492578;28;20327;-78
2022/01/17 21:09:44;;;;;;;12.10;11.00;;;7.50;99.90;;;;;;10530698;28;20213;-78
2022/01/17 21:14:46;;;;;;;11.73;10.63;;;7.50;99.90;;;;;;10494340;28;20209;-78
2022/01/17 21:19:49;;;;;;;12.13;10.83;;;7.50;99.90;;;;;;10494495;28;20913;-78
2022/01/17 21:24:52;;;;;;;11.83;10.70;;;7.50;99.90;;;;;;10495480;28;20240;-78
2022/01/17 21:29:54;;;;;;;11.57;10.37;;;7.50;99.90;;;;;;10494495;28;20200;-78
2022/01/17 21:34:56;;;;;;;11.37;10.20;;;7.50;99.90;;;;;;10493810;28;20228;-78
2022/01/17 21:40:00;;;;;;;10.70;9.70;;;7.50;99.90;;;;;;10491575;28;20194;-78
2022/01/17 21:45:02;;;;;;;12.50;11.27;;;7.50;99.90;;;;;;10479573;28;20266;-77
2022/01/17 21:50:05;;;;;;;12.13;10.90;;;7.50;99.90;;;;;;10517827;28;20216;-79
2022/01/17 21:55:11;;;;;;;12.60;11.50;;;7.50;99.90;;;;;;10519635;28;20267;-79
2022/01/17 22:00:16;;;;;;;12.43;11.13;;;7.50;99.90;;;;;;10462980;28;20180;-78
2022/01/17 22:05:18;;;;;;;10.87;9.87;;;7.60;99.90;;;;;;10477262;28;20307;-79
2022/01/17 22:10:22;;;;;;;11.63;10.43;;;7.60;99.90;;;;;;10493885;28;20706;-79
2022/01/17 22:15:26;;;;;;;11.47;10.27;;;7.50;99.90;;;;;;10471500;28;20255;-78
2022/01/17 22:20:29;;;;;;;12.70;11.40;;;7.40;99.90;;;;;;10484080;28;20642;-78
2022/01/17 22:25:33;;;;;;;12.70;11.40;;;7.40;99.90;;;;;;10499716;28;20216;-78
2022/01/17 22:30:35;;;;;;;12.13;10.40;;;7.50;99.90;;;;;;10493943;28;20282;-79
2022/01/17 22:35:38;;;;;;;10.70;9.60;;;7.40;99.90;;;;;;10470918;28;20322;-79
2022/01/17 22:40:42;;;;;;;12.07;10.87;;;7.40;99.90;;;;;;10533854;28;20214;-79
2022/01/17 22:45:44;;;;;;;11.30;10.20;;;7.40;99.90;;;;;;10496846;28;20224;-78
2022/01/17 22:50:46;;;;;;;10.50;9.47;;;7.40;99.90;;;;;;10492129;28;20204;-79
2022/01/17 22:55:49;;;;;;;9.40;8.50;;;7.40;99.90;;;;;;10512475;28;20642;-78
2022/01/17 23:00:52;;;;;;;10.30;9.30;;;7.40;99.90;;;;;;10536739;28;20211;-79
2022/01/17 23:05:54;;;;;;;10.53;9.53;;;7.40;99.90;;;;;;10497959;28;20220;-78
2022/01/17 23:10:57;;;;;;;9.47;8.53;;;7.50;99.90;;;;;;10517534;28;20234;-78
2022/01/17 23:15:59;;;;;;;10.13;9.20;;;7.50;99.90;;;;;;10491798;28;20216;-79
2022/01/17 23:21:06;;;;;;;10.00;9.10;;;7.50;99.90;;;;;;10514074;28;20276;-78
2022/01/17 23:26:09;;;;;;;10.80;9.80;;;7.50;99.90;;;;;;10524058;28;20288;-78
2022/01/17 23:36:34;;;;;;;11.60;10.47;;;7.40;99.90;;;;;;10512682;28;20640;-78
2022/01/17 23:41:39;;;;;;;11.03;9.97;;;7.40;99.90;;;;;;10514708;28;20188;-78
2022/01/17 23:46:41;;;;;;;11.27;10.10;;;7.40;99.90;;;;;;10515351;28;20220;-78
2022/01/17 23:51:44;;;;;;;11.50;10.30;;;7.50;99.90;;;;;;10516498;28;20240;-78
2022/01/17 23:56:47;;;;;;;10.63;9.63;;;7.50;99.90;;;;;;10488429;28;20217;-77
